Time;durP1;ratioP1;P1;durP2;ratioP2;P2;SDS_P1;SDS_P2;PMS_P1;PMS_P2;Temp;Humidity;BMP_temperature;BMP_pressure;BME280_temperature;BME280_humidity;BME280_pressure;Samples;Min_cycle;Max_cycle;Signal;HPM_P1;HPM_P2
2021/09/24 00:01:28;;;;;;;7.40;2.63;;;;;;;;;;5095078;28;20461;-60
2021/09/24 00:03:55;;;;;;;6.50;2.37;;;;;;;;;;5093279;28;20990;-61
2021/09/24 00:06:24;;;;;;;7.60;3.07;;;;;;;;;;5094137;28;20449;-60
2021/09/24 00:08:51;;;;;;;11.53;2.70;;;;;;;;;;5093633;28;20494;-61
2021/09/24 00:11:18;;;;;;;9.40;2.50;;;;;;;;;;5093112;28;20982;-60
2021/09/24 00:13:45;;;;;;;8.00;2.27;;;;;;;;;;5093028;28;21065;-61
2021/09/24 00:16:13;;;;;;;7.53;3.10;;;;;;;;;;5093557;28;20495;-61
2021/09/24 00:18:40;;;;;;;8.73;2.47;;;;;;;;;;5093404;28;20497;-61
2021/09/24 00:21:07;;;;;;;10.53;2.40;;;;;;;;;;5093125;28;20450;-61
2021/09/24 00:23:36;;;;;;;6.70;2.17;;;;;;;;;;5094828;28;20445;-61
2021/09/24 00:26:03;;;;;;;9.03;2.73;;;;;;;;;;5097433;28;20438;-60
2021/09/24 00:28:30;;;;;;;13.93;3.00;;;;;;;;;;5097635;28;20444;-61
2021/09/24 00:30:57;;;;;;;7.27;2.70;;;;;;;;;;5097630;28;20518;-61
2021/09/24 00:33:27;;;;;;;8.87;2.70;;;;;;;;;;5097385;28;20529;-61
2021/09/24 00:35:55;;;;;;;8.17;2.27;;;;;;;;;;5097635;28;20452;-61
2021/09/24 00:38:22;;;;;;;13.30;2.83;;;;;;;;;;5097538;28;20541;-61
2021/09/24 00:40:51;;;;;;;8.30;2.77;;;;;;;;;;5097115;28;20492;-61
2021/09/24 00:43:18;;;;;;;5.87;2.37;;;;;;;;;;5116473;28;20873;-61
2021/09/24 00:45:45;;;;;;;10.60;3.30;;;;;;;;;;5117630;28;20453;-60
2021/09/24 00:48:13;;;;;;;13.80;3.20;;;;;;;;;;5117525;28;20443;-61
2021/09/24 00:50:40;;;;;;;11.27;2.77;;;;;;;;;;5117554;28;20496;-61
2021/09/24 00:53:09;;;;;;;13.73;2.90;;;;;;;;;;5117380;28;20484;-61
2021/09/24 00:55:37;;;;;;;7.87;2.50;;;;;;;;;;5117597;28;20453;-61
2021/09/24 00:58:06;;;;;;;9.73;2.87;;;;;;;;;;5117147;28;20446;-61
2021/09/24 01:00:33;;;;;;;7.27;2.90;;;;;;;;;;5117278;28;20447;-60
2021/09/24 01:03:01;;;;;;;10.90;2.63;;;;;;;;;;5117127;28;20474;-61
2021/09/24 01:05:28;;;;;;;11.43;2.77;;;;;;;;;;5117204;28;20439;-61
2021/09/24 01:07:55;;;;;;;11.27;2.57;;;;;;;;;;5117149;28;20449;-61
2021/09/24 01:10:23;;;;;;;8.70;2.60;;;;;;;;;;5117154;28;20445;-61
2021/09/24 01:12:50;;;;;;;9.60;2.77;;;;;;;;;;5116908;28;20463;-61
2021/09/24 01:15:19;;;;;;;8.40;2.97;;;;;;;;;;5117889;28;20475;-60
2021/09/24 01:17:48;;;;;;;9.20;3.63;;;;;;;;;;5117343;28;20859;-60
2021/09/24 01:20:16;;;;;;;10.27;3.50;;;;;;;;;;5116719;28;20544;-60
2021/09/24 01:22:45;;;;;;;10.03;2.80;;;;;;;;;;5116857;28;20514;-61
2021/09/24 01:25:13;;;;;;;5.80;2.60;;;;;;;;;;5118194;28;20439;-61
2021/09/24 01:27:40;;;;;;;9.80;2.67;;;;;;;;;;5116826;28;20860;-61
2021/09/24 01:30:08;;;;;;;13.13;3.40;;;;;;;;;;5117327;28;20437;-61
2021/09/24 01:32:35;;;;;;;5.40;3.50;;;;;;;;;;5116393;28;20468;-61
2021/09/24 01:35:03;;;;;;;9.93;3.03;;;;;;;;;;5115515;28;20984;-60
2021/09/24 01:37:30;;;;;;;4.47;2.80;;;;;;;;;;5116615;28;20443;-61
2021/09/24 01:40:00;;;;;;;10.83;5.20;;;;;;;;;;5116554;28;20506;-61
2021/09/24 01:42:28;;;;;;;10.90;2.87;;;;;;;;;;5116144;28;20471;-61
2021/09/24 01:44:55;;;;;;;7.33;3.30;;;;;;;;;;5116504;28;20440;-61
2021/09/24 01:47:22;;;;;;;8.63;2.90;;;;;;;;;;5116458;28;20463;-61
2021/09/24 01:49:49;;;;;;;9.47;3.13;;;;;;;;;;5115978;28;20792;-61
2021/09/24 01:52:17;;;;;;;6.87;2.87;;;;;;;;;;5115923;28;20466;-61
2021/09/24 01:54:44;;;;;;;8.93;2.33;;;;;;;;;;5115869;28;20993;-61
2021/09/24 01:57:12;;;;;;;7.07;2.50;;;;;;;;;;5115877;28;20495;-61
2021/09/24 01:59:40;;;;;;;5.20;2.40;;;;;;;;;;5117100;28;20449;-59
2021/09/24 02:02:07;;;;;;;6.70;2.33;;;;;;;;;;5116210;28;20462;-61
2021/09/24 02:04:34;;;;;;;8.03;2.70;;;;;;;;;;5116113;28;20856;-60
2021/09/24 02:07:01;;;;;;;11.73;3.67;;;;;;;;;;5116142;28;20439;-61
2021/09/24 02:09:29;;;;;;;11.37;4.60;;;;;;;;;;5116723;28;20499;-60
2021/09/24 02:11:56;;;;;;;6.80;2.93;;;;;;;;;;5115756;28;20565;-61
2021/09/24 02:14:25;;;;;;;7.60;2.90;;;;;;;;;;5115873;28;20542;-61
2021/09/24 02:16:52;;;;;;;10.67;2.70;;;;;;;;;;5115786;28;20442;-61
2021/09/24 02:19:20;;;;;;;12.10;2.57;;;;;;;;;;5115800;28;20442;-60
2021/09/24 02:21:47;;;;;;;9.00;3.30;;;;;;;;;;5115635;28;20966;-59
2021/09/24 02:24:15;;;;;;;7.57;2.53;;;;;;;;;;5115731;28;20446;-61
2021/09/24 02:26:42;;;;;;;10.03;3.20;;;;;;;;;;5116044;28;20463;-61
2021/09/24 02:29:09;;;;;;;12.97;3.03;;;;;;;;;;5116637;28;20825;-61
2021/09/24 02:31:38;;;;;;;11.93;3.27;;;;;;;;;;5116672;28;20459;-61
2021/09/24 02:34:05;;;;;;;10.20;2.90;;;;;;;;;;5115218;28;20998;-61
2021/09/24 02:36:33;;;;;;;9.37;3.00;;;;;;;;;;5115722;28;20849;-61
2021/09/24 02:39:00;;;;;;;11.83;3.43;;;;;;;;;;5115287;28;20445;-61
2021/09/24 02:41:27;;;;;;;8.43;2.80;;;;;;;;;;5115050;28;20486;-61
2021/09/24 02:43:54;;;;;;;10.60;2.87;;;;;;;;;;5115537;28;20445;-61
2021/09/24 02:46:22;;;;;;;7.87;3.30;;;;;;;;;;5114839;28;20491;-61
2021/09/24 02:48:50;;;;;;;12.93;3.67;;;;;;;;;;5114618;28;20938;-64
2021/09/24 02:51:18;;;;;;;6.23;3.07;;;;;;;;;;5115293;28;20988;-61
2021/09/24 02:53:45;;;;;;;10.50;3.33;;;;;;;;;;5115500;28;20474;-62
2021/09/24 02:56:12;;;;;;;11.77;3.10;;;;;;;;;;5115856;28;20443;-60
2021/09/24 02:58:39;;;;;;;8.80;3.00;;;;;;;;;;5115816;28;20509;-60
2021/09/24 03:01:07;;;;;;;11.03;4.03;;;;;;;;;;5115071;28;20920;-60
2021/09/24 03:03:34;;;;;;;15.67;4.13;;;;;;;;;;5115207;28;20819;-61
2021/09/24 03:06:02;;;;;;;13.57;3.80;;;;;;;;;;5115078;28;20447;-61
2021/09/24 03:08:30;;;;;;;10.57;3.67;;;;;;;;;;5115160;28;20459;-61
2021/09/24 03:10:57;;;;;;;7.50;3.30;;;;;;;;;;5115134;28;20488;-61
2021/09/24 03:13:24;;;;;;;12.67;2.97;;;;;;;;;;5114950;28;20490;-60
2021/09/24 03:15:53;;;;;;;16.93;3.70;;;;;;;;;;5114466;28;20864;-60
2021/09/24 03:18:21;;;;;;;13.10;3.40;;;;;;;;;;5114929;28;20450;-60
2021/09/24 03:20:50;;;;;;;17.53;4.17;;;;;;;;;;5114352;28;20955;-60
2021/09/24 03:23:19;;;;;;;8.23;3.13;;;;;;;;;;5114047;28;20467;-60
2021/09/24 03:25:47;;;;;;;10.97;3.70;;;;;;;;;;5114232;28;20508;-58
2021/09/24 03:28:14;;;;;;;10.13;3.20;;;;;;;;;;5114517;28;20444;-61
2021/09/24 03:30:42;;;;;;;11.37;2.90;;;;;;;;;;5114423;28;20505;-60
2021/09/24 03:33:09;;;;;;;12.13;3.60;;;;;;;;;;5114350;28;20466;-61
2021/09/24 03:35:36;;;;;;;11.10;3.73;;;;;;;;;;5113964;28;20484;-61
2021/09/24 03:38:03;;;;;;;9.20;3.07;;;;;;;;;;5114358;28;20503;-61
2021/09/24 03:40:32;;;;;;;7.73;3.10;;;;;;;;;;5114622;28;20439;-60
2021/09/24 03:42:59;;;;;;;11.80;4.73;;;;;;;;;;5114072;28;20482;-60
2021/09/24 03:45:28;;;;;;;6.60;3.20;;;;;;;;;;5114438;28;20574;-60
2021/09/24 03:47:55;;;;;;;9.80;3.70;;;;;;;;;;5114838;28;20446;-60
2021/09/24 03:50:24;;;;;;;13.00;4.70;;;;;;;;;;5114050;28;20445;-59
2021/09/24 03:52:52;;;;;;;7.07;3.20;;;;;;;;;;5113646;28;20522;-60
2021/09/24 03:55:19;;;;;;;8.93;4.10;;;;;;;;;;5113539;28;20484;-59
2021/09/24 03:57:48;;;;;;;16.13;4.17;;;;;;;;;;5113897;28;20489;-61
2021/09/24 04:00:15;;;;;;;12.63;4.50;;;;;;;;;;5113597;28;20439;-60
2021/09/24 04:02:43;;;;;;;14.00;5.17;;;;;;;;;;5113795;28;20458;-61
2021/09/24 04:08:37;;;;;;;14.63;5.77;;;;;;;;;;5091785;27;20543;-62
2021/09/24 04:11:04;;;;;;;11.10;4.50;;;;;;;;;;5090692;28;20511;-61
2021/09/24 04:13:31;;;;;;;7.20;3.03;;;;;;;;;;5091283;28;20508;-61
2021/09/24 04:15:58;;;;;;;5.70;3.03;;;;;;;;;;5090997;28;20486;-60
2021/09/24 04:18:26;;;;;;;9.03;3.13;;;;;;;;;;5091246;28;20441;-61
2021/09/24 04:20:53;;;;;;;8.30;3.00;;;;;;;;;;5091366;28;20447;-61
2021/09/24 04:23:20;;;;;;;13.87;3.70;;;;;;;;;;5094581;28;20468;-61
2021/09/24 04:25:49;;;;;;;6.53;2.97;;;;;;;;;;5097879;28;20440;-59
2021/09/24 04:28:16;;;;;;;9.60;3.10;;;;;;;;;;5094366;28;20480;-60
2021/09/24 04:30:43;;;;;;;6.20;3.10;;;;;;;;;;5091224;28;20440;-59
2021/09/24 04:33:10;;;;;;;7.57;2.90;;;;;;;;;;5091076;28;20516;-61
2021/09/24 04:35:38;;;;;;;7.03;2.80;;;;;;;;;;5091933;28;20461;-62
2021/09/24 04:38:05;;;;;;;7.73;3.53;;;;;;;;;;5090598;28;21056;-60
2021/09/24 04:40:32;;;;;;;10.30;3.43;;;;;;;;;;5090513;28;20447;-61
2021/09/24 04:43:01;;;;;;;7.70;3.30;;;;;;;;;;5090749;28;20472;-60
2021/09/24 04:45:28;;;;;;;7.40;2.30;;;;;;;;;;5090853;28;20439;-61
2021/09/24 04:47:56;;;;;;;6.47;3.67;;;;;;;;;;5090820;28;20538;-61
2021/09/24 04:50:23;;;;;;;8.33;3.00;;;;;;;;;;5091285;28;20494;-61
2021/09/24 04:52:50;;;;;;;9.13;3.43;;;;;;;;;;5091166;28;20457;-61
2021/09/24 04:55:17;;;;;;;10.03;3.03;;;;;;;;;;5091260;28;20514;-60
2021/09/24 04:57:45;;;;;;;8.90;3.40;;;;;;;;;;5090740;28;20445;-61
2021/09/24 05:00:14;;;;;;;7.20;3.17;;;;;;;;;;5090460;28;20851;-61
2021/09/24 05:02:42;;;;;;;9.87;4.43;;;;;;;;;;5090152;28;20466;-61
2021/09/24 05:05:10;;;;;;;8.60;3.10;;;;;;;;;;5090102;28;20448;-60
2021/09/24 05:07:38;;;;;;;14.40;4.00;;;;;;;;;;5090207;28;20480;-60
2021/09/24 05:10:07;;;;;;;11.70;3.60;;;;;;;;;;5092305;28;20539;-60
2021/09/24 05:12:34;;;;;;;5.53;3.17;;;;;;;;;;5093205;28;20976;-60
2021/09/24 05:15:02;;;;;;;12.97;3.30;;;;;;;;;;5089556;28;20464;-60
2021/09/24 05:17:31;;;;;;;8.80;2.90;;;;;;;;;;5089680;28;20997;-60
2021/09/24 05:19:59;;;;;;;6.77;2.93;;;;;;;;;;5077124;28;20458;-60
2021/09/24 05:22:26;;;;;;;8.67;3.57;;;;;;;;;;5076135;28;20469;-61
2021/09/24 05:24:53;;;;;;;10.13;3.23;;;;;;;;;;5077730;28;20561;-60
2021/09/24 05:27:20;;;;;;;8.20;3.20;;;;;;;;;;5076961;28;20526;-61
2021/09/24 05:29:48;;;;;;;8.43;3.23;;;;;;;;;;5076468;28;20529;-61
2021/09/24 05:32:17;;;;;;;15.53;3.37;;;;;;;;;;5076218;28;20522;-61
2021/09/24 05:34:45;;;;;;;7.40;3.10;;;;;;;;;;5076349;28;20477;-60
2021/09/24 05:37:13;;;;;;;11.43;3.80;;;;;;;;;;5075818;28;20445;-60
2021/09/24 05:39:42;;;;;;;11.23;3.50;;;;;;;;;;5075901;28;20501;-60
2021/09/24 05:42:18;;;;;;;14.00;4.10;;;;;;;;;;5076245;28;20462;-60
2021/09/24 05:44:45;;;;;;;8.07;2.90;;;;;;;;;;5075985;28;20437;-59
2021/09/24 05:47:12;;;;;;;5.93;2.40;;;;;;;;;;5075441;28;21063;-60
2021/09/24 05:49:40;;;;;;;9.73;2.83;;;;;;;;;;5075643;28;20988;-59
2021/09/24 05:52:09;;;;;;;7.87;2.20;;;;;;;;;;5075232;28;20529;-60
2021/09/24 05:54:36;;;;;;;14.93;3.07;;;;;;;;;;5075811;28;20443;-60
2021/09/24 05:57:03;;;;;;;9.13;3.20;;;;;;;;;;5075467;28;20441;-59
2021/09/24 05:59:30;;;;;;;8.20;2.43;;;;;;;;;;5075048;28;20495;-59
2021/09/24 06:01:58;;;;;;;6.73;3.13;;;;;;;;;;5075142;28;20463;-61
2021/09/24 06:04:25;;;;;;;7.90;2.47;;;;;;;;;;5075121;28;20461;-60
2021/09/24 06:06:52;;;;;;;8.77;2.90;;;;;;;;;;5075129;28;20943;-60
2021/09/24 06:09:21;;;;;;;8.43;3.07;;;;;;;;;;5075771;28;20502;-61
2021/09/24 06:11:48;;;;;;;8.30;2.40;;;;;;;;;;5074841;28;20534;-60
2021/09/24 06:14:15;;;;;;;8.67;2.63;;;;;;;;;;5075284;28;20463;-61
2021/09/24 06:16:42;;;;;;;7.40;2.20;;;;;;;;;;5075179;28;20449;-61
2021/09/24 06:19:10;;;;;;;6.80;2.83;;;;;;;;;;5075983;28;20787;-60
2021/09/24 06:21:38;;;;;;;11.83;3.03;;;;;;;;;;5075278;28;20847;-60
2021/09/24 06:24:05;;;;;;;13.33;2.87;;;;;;;;;;5074919;28;20469;-61
2021/09/24 06:26:34;;;;;;;8.30;2.43;;;;;;;;;;5075063;28;20445;-59
2021/09/24 06:29:01;;;;;;;6.27;2.50;;;;;;;;;;5075022;28;20483;-59
2021/09/24 06:31:29;;;;;;;6.77;2.57;;;;;;;;;;5074115;28;21040;-59
2021/09/24 06:33:56;;;;;;;9.07;2.83;;;;;;;;;;5074951;28;20448;-61
2021/09/24 06:36:24;;;;;;;7.33;3.47;;;;;;;;;;5075145;28;20458;-59
2021/09/24 06:38:51;;;;;;;7.80;2.30;;;;;;;;;;5075466;28;20799;-60
2021/09/24 06:41:19;;;;;;;9.77;2.77;;;;;;;;;;5075175;28;20466;-59
2021/09/24 06:43:47;;;;;;;7.50;2.87;;;;;;;;;;5076042;28;20469;-59
2021/09/24 06:46:15;;;;;;;8.73;2.93;;;;;;;;;;5075983;28;20532;-59
2021/09/24 06:48:42;;;;;;;9.50;2.97;;;;;;;;;;5075873;28;21067;-61
2021/09/24 06:51:10;;;;;;;6.80;2.10;;;;;;;;;;5075466;28;20443;-60
2021/09/24 06:53:37;;;;;;;7.47;2.83;;;;;;;;;;5075325;28;20515;-60
2021/09/24 06:56:04;;;;;;;5.60;2.37;;;;;;;;;;5075226;28;20877;-61
2021/09/24 06:58:32;;;;;;;8.00;3.70;;;;;;;;;;5075520;28;20501;-60
2021/09/24 07:01:01;;;;;;;7.00;2.60;;;;;;;;;;5079927;28;20442;-60
2021/09/24 07:03:28;;;;;;;11.13;3.10;;;;;;;;;;5079996;28;20508;-58
2021/09/24 07:05:55;;;;;;;9.93;3.20;;;;;;;;;;5077621;28;20473;-60
2021/09/24 07:08:22;;;;;;;10.10;3.43;;;;;;;;;;5075407;28;20486;-59
2021/09/24 07:10:50;;;;;;;12.27;3.03;;;;;;;;;;5073957;28;20447;-59
2021/09/24 07:13:17;;;;;;;6.73;2.50;;;;;;;;;;5073439;28;20531;-60
2021/09/24 07:15:44;;;;;;;9.57;3.30;;;;;;;;;;5074652;28;20447;-61
2021/09/24 07:18:13;;;;;;;8.63;3.27;;;;;;;;;;5073786;28;20448;-59
2021/09/24 07:20:40;;;;;;;4.80;2.70;;;;;;;;;;5073537;28;20448;-61
2021/09/24 07:23:07;;;;;;;14.90;3.00;;;;;;;;;;5073447;28;20963;-61
2021/09/24 07:25:35;;;;;;;7.33;3.00;;;;;;;;;;5073534;28;20444;-61
2021/09/24 07:28:02;;;;;;;6.20;3.00;;;;;;;;;;5073018;28;20476;-60
2021/09/24 07:30:29;;;;;;;6.30;2.50;;;;;;;;;;5073485;28;20451;-62
2021/09/24 07:32:56;;;;;;;8.83;3.13;;;;;;;;;;5073542;28;20471;-60
2021/09/24 07:35:25;;;;;;;6.00;2.70;;;;;;;;;;5073227;28;20455;-61
2021/09/24 07:37:52;;;;;;;6.20;2.73;;;;;;;;;;5073112;28;20498;-59
2021/09/24 07:40:19;;;;;;;6.50;2.30;;;;;;;;;;5073658;28;20451;-62
2021/09/24 07:42:47;;;;;;;7.90;2.83;;;;;;;;;;5073279;28;20467;-60
2021/09/24 07:45:14;;;;;;;5.77;2.50;;;;;;;;;;5073626;28;20448;-60
2021/09/24 07:47:41;;;;;;;8.73;2.60;;;;;;;;;;5073119;28;20472;-60
2021/09/24 07:50:09;;;;;;;5.93;2.73;;;;;;;;;;5073532;28;20459;-60
2021/09/24 07:52:37;;;;;;;6.47;2.47;;;;;;;;;;5075956;28;20468;-60
2021/09/24 07:55:05;;;;;;;10.10;2.63;;;;;;;;;;5075510;28;20447;-61
2021/09/24 07:57:32;;;;;;;4.80;2.60;;;;;;;;;;5074976;28;20569;-59
2021/09/24 07:59:59;;;;;;;4.33;1.97;;;;;;;;;;5073663;28;20505;-61
2021/09/24 08:02:27;;;;;;;6.70;2.23;;;;;;;;;;5073349;28;20516;-61
2021/09/24 08:04:54;;;;;;;5.33;2.50;;;;;;;;;;5073172;28;20513;-59
2021/09/24 08:07:21;;;;;;;6.57;2.60;;;;;;;;;;5072862;28;20513;-59
2021/09/24 08:09:50;;;;;;;4.03;2.27;;;;;;;;;;5073123;28;20448;-60
2021/09/24 08:12:17;;;;;;;6.00;2.30;;;;;;;;;;5072956;28;20467;-61
2021/09/24 08:14:45;;;;;;;10.80;2.50;;;;;;;;;;5073311;28;20444;-60
2021/09/24 08:17:12;;;;;;;4.93;1.93;;;;;;;;;;5072945;28;20985;-63
2021/09/24 08:19:39;;;;;;;4.60;2.07;;;;;;;;;;5072492;28;20445;-60
2021/09/24 08:22:06;;;;;;;8.37;2.40;;;;;;;;;;5072594;28;21003;-61
2021/09/24 08:24:34;;;;;;;8.00;3.17;;;;;;;;;;5073590;28;20445;-59
2021/09/24 08:27:02;;;;;;;6.33;2.07;;;;;;;;;;5073248;28;20510;-59
2021/09/24 08:29:30;;;;;;;3.53;2.20;;;;;;;;;;5072612;28;20480;-60
2021/09/24 08:31:57;;;;;;;6.77;2.47;;;;;;;;;;5072356;28;20471;-60
2021/09/24 08:34:24;;;;;;;3.87;2.13;;;;;;;;;;5072710;28;20444;-61
2021/09/24 08:36:51;;;;;;;9.30;2.33;;;;;;;;;;5072576;28;20841;-59
2021/09/24 08:39:18;;;;;;;8.27;3.13;;;;;;;;;;5073568;28;20491;-60
2021/09/24 08:41:46;;;;;;;4.87;2.30;;;;;;;;;;5074322;28;20514;-60
2021/09/24 08:44:14;;;;;;;11.70;2.97;;;;;;;;;;5073559;28;20519;-61
2021/09/24 08:46:42;;;;;;;6.63;2.33;;;;;;;;;;5073205;28;20441;-58
2021/09/24 08:49:09;;;;;;;3.40;2.03;;;;;;;;;;5073815;28;20522;-59
2021/09/24 08:51:36;;;;;;;3.80;2.10;;;;;;;;;;5074936;28;20531;-60
2021/09/24 08:54:04;;;;;;;2.57;1.90;;;;;;;;;;5076445;28;20515;-60
2021/09/24 08:56:31;;;;;;;3.77;2.30;;;;;;;;;;5078567;28;20452;-60
2021/09/24 08:58:59;;;;;;;3.83;2.13;;;;;;;;;;5078596;28;20498;-60
2021/09/24 09:01:27;;;;;;;5.50;2.37;;;;;;;;;;5077931;28;20966;-60
2021/09/24 09:03:55;;;;;;;6.70;2.60;;;;;;;;;;5080584;28;20452;-59
2021/09/24 09:06:23;;;;;;;4.63;2.30;;;;;;;;;;5083630;28;20467;-61
2021/09/24 09:08:50;;;;;;;5.97;2.40;;;;;;;;;;5081068;28;20595;-60
2021/09/24 09:11:19;;;;;;;11.83;2.53;;;;;;;;;;5081839;28;20472;-61
2021/09/24 09:13:48;;;;;;;7.53;2.20;;;;;;;;;;5083786;28;20457;-59
2021/09/24 09:16:17;;;;;;;8.03;2.30;;;;;;;;;;5081609;28;20466;-61
2021/09/24 09:18:46;;;;;;;4.03;2.20;;;;;;;;;;5080125;28;20513;-61
2021/09/24 09:21:14;;;;;;;6.00;2.30;;;;;;;;;;5078475;28;20506;-62
2021/09/24 09:23:43;;;;;;;9.23;2.60;;;;;;;;;;5077804;28;20490;-60
2021/09/24 09:26:12;;;;;;;7.90;2.57;;;;;;;;;;5077708;28;20941;-60
2021/09/24 09:28:40;;;;;;;3.50;2.60;;;;;;;;;;5077342;28;20482;-58
2021/09/24 09:31:18;;;;;;;4.57;2.23;;;;;;;;;;5078034;28;20541;-60
2021/09/24 09:33:47;;;;;;;2.90;2.17;;;;;;;;;;5078037;28;20449;-62
2021/09/24 09:36:22;;;;;;;6.87;2.37;;;;;;;;;;5077088;28;20555;-60
2021/09/24 09:38:49;;;;;;;5.50;2.53;;;;;;;;;;5076153;28;20430;-60
2021/09/24 09:41:17;;;;;;;6.60;2.70;;;;;;;;;;5075872;28;20463;-60
2021/09/24 09:43:46;;;;;;;7.73;2.47;;;;;;;;;;5075989;28;20480;-61
2021/09/24 09:46:14;;;;;;;6.80;2.87;;;;;;;;;;5076176;28;20500;-61
2021/09/24 09:48:41;;;;;;;4.83;2.50;;;;;;;;;;5076393;28;20482;-61
2021/09/24 09:51:10;;;;;;;5.33;2.00;;;;;;;;;;5075430;28;20446;-60
2021/09/24 09:53:37;;;;;;;3.70;2.20;;;;;;;;;;5075459;28;20454;-63
2021/09/24 09:56:06;;;;;;;9.40;3.00;;;;;;;;;;5075710;28;20442;-61
2021/09/24 09:58:36;;;;;;;5.60;2.37;;;;;;;;;;5075421;28;20446;-61
2021/09/24 10:01:06;;;;;;;7.30;2.90;;;;;;;;;;5074820;28;20450;-62
2021/09/24 10:03:35;;;;;;;4.70;3.10;;;;;;;;;;5075535;28;20855;-60
2021/09/24 10:06:04;;;;;;;4.57;2.70;;;;;;;;;;5075004;28;20446;-61
2021/09/24 10:08:33;;;;;;;3.57;3.07;;;;;;;;;;5075270;28;20595;-61
2021/09/24 10:11:08;;;;;;;6.73;2.90;;;;;;;;;;5075919;28;20451;-62
2021/09/24 10:13:50;;;;;;;7.43;3.17;;;;;;;;;;5075440;28;20446;-61
2021/09/24 10:16:17;;;;;;;4.87;2.87;;;;;;;;;;5075028;28;20434;-59
2021/09/24 10:18:45;;;;;;;6.80;2.83;;;;;;;;;;5075496;28;20500;-61
2021/09/24 10:21:12;;;;;;;8.30;3.30;;;;;;;;;;5074452;28;20454;-61
2021/09/24 10:23:41;;;;;;;4.97;3.03;;;;;;;;;;5075254;28;20506;-60
2021/09/24 10:26:10;;;;;;;5.80;3.00;;;;;;;;;;5078975;28;20451;-61
2021/09/24 10:28:39;;;;;;;6.13;3.60;;;;;;;;;;5075367;28;20532;-60
2021/09/24 10:31:13;;;;;;;5.73;3.60;;;;;;;;;;5080077;28;20512;-61
2021/09/24 10:33:44;;;;;;;8.50;3.03;;;;;;;;;;5081902;28;20785;-61
2021/09/24 10:36:11;;;;;;;6.10;3.13;;;;;;;;;;5079541;28;20497;-61
2021/09/24 10:38:46;;;;;;;5.20;3.07;;;;;;;;;;5075718;28;20435;-63
2021/09/24 10:41:14;;;;;;;6.60;3.37;;;;;;;;;;5074267;28;20505;-61
2021/09/24 10:43:44;;;;;;;6.20;3.47;;;;;;;;;;5073920;28;20550;-60
2021/09/24 10:46:30;;;;;;;7.50;3.90;;;;;;;;;;5074012;28;20483;-61
2021/09/24 10:49:12;;;;;;;4.43;3.70;;;;;;;;;;5073998;28;20521;-62
2021/09/24 10:51:40;;;;;;;6.40;4.47;;;;;;;;;;5073862;28;20470;-61
2021/09/24 10:54:16;;;;;;;6.60;4.40;;;;;;;;;;5073752;28;20455;-61
2021/09/24 10:56:59;;;;;;;7.43;4.43;;;;;;;;;;5074204;28;20419;-61
2021/09/24 10:59:31;;;;;;;7.70;4.73;;;;;;;;;;5073847;28;20420;-60
2021/09/24 11:01:59;;;;;;;6.47;5.03;;;;;;;;;;5073654;28;20987;-59
2021/09/24 11:04:42;;;;;;;7.27;5.10;;;;;;;;;;5074019;28;20443;-61
2021/09/24 11:07:10;;;;;;;7.77;4.97;;;;;;;;;;5073844;28;20454;-62
2021/09/24 11:09:51;;;;;;;12.10;5.30;;;;;;;;;;5075508;28;20487;-60
2021/09/24 11:12:18;;;;;;;6.00;4.83;;;;;;;;;;5074742;28;20974;-62
2021/09/24 11:14:45;;;;;;;8.53;5.67;;;;;;;;;;5074342;28;20439;-61
2021/09/24 11:17:14;;;;;;;6.13;5.53;;;;;;;;;;5073537;28;20455;-62
2021/09/24 11:19:42;;;;;;;7.00;5.40;;;;;;;;;;5074079;28;20439;-61
2021/09/24 11:22:20;;;;;;;6.00;5.27;;;;;;;;;;5074318;28;20475;-61
2021/09/24 11:24:50;;;;;;;8.50;6.10;;;;;;;;;;5074385;28;20509;-61
2021/09/24 11:27:32;;;;;;;7.63;6.00;;;;;;;;;;5074634;28;20454;-60
2021/09/24 11:30:15;;;;;;;10.30;7.10;;;;;;;;;;5074111;28;20843;-62
2021/09/24 11:32:44;;;;;;;9.67;6.93;;;;;;;;;;5074788;28;20527;-61
2021/09/24 11:35:11;;;;;;;9.53;7.23;;;;;;;;;;5074097;28;20493;-61
2021/09/24 11:37:40;;;;;;;8.90;7.20;;;;;;;;;;5075115;28;20489;-60
2021/09/24 11:40:10;;;;;;;8.53;7.70;;;;;;;;;;5074583;28;20440;-60
2021/09/24 11:42:38;;;;;;;8.80;7.03;;;;;;;;;;5087266;22;20490;-55
2021/09/24 11:45:08;;;;;;;11.43;8.53;;;;;;;;;;5013892;28;20529;-55
2021/09/24 11:47:39;;;;;;;11.23;8.10;;;;;;;;;;5013837;28;20516;-55
2021/09/24 11:50:08;;;;;;;10.60;7.93;;;;;;;;;;5013468;28;20463;-57
2021/09/24 11:52:39;;;;;;;11.23;8.43;;;;;;;;;;5013339;28;20450;-57
2021/09/24 11:55:15;;;;;;;8.90;8.00;;;;;;;;;;5013533;28;20445;-56
2021/09/24 11:57:43;;;;;;;9.63;8.67;;;;;;;;;;5013547;28;20496;-57
2021/09/24 12:00:11;;;;;;;18.80;9.10;;;;;;;;;;5013594;28;20530;-56
2021/09/24 12:02:38;;;;;;;13.67;11.70;;;;;;;;;;5013184;28;20446;-58
2021/09/24 12:05:06;;;;;;;14.40;11.30;;;;;;;;;;5013597;28;20511;-55
2021/09/24 12:07:33;;;;;;;13.43;12.03;;;;;;;;;;5013531;28;20472;-57
2021/09/24 12:10:01;;;;;;;15.33;12.83;;;;;;;;;;5012959;28;20540;-56
2021/09/24 12:12:30;;;;;;;14.97;13.37;;;;;;;;;;5012650;28;20527;-56
2021/09/24 12:14:59;;;;;;;19.27;15.47;;;;;;;;;;5013632;28;20458;-56
2021/09/24 12:17:27;;;;;;;17.77;15.17;;;;;;;;;;5013032;28;20605;-56
2021/09/24 12:19:54;;;;;;;19.27;16.17;;;;;;;;;;5013107;28;20501;-56
2021/09/24 12:22:22;;;;;;;19.23;17.30;;;;;;;;;;5012607;28;20453;-59
2021/09/24 12:24:49;;;;;;;21.10;17.77;;;;;;;;;;5012876;28;20500;-56
2021/09/24 12:27:19;;;;;;;22.60;18.50;;;;;;;;;;5013255;28;20448;-58
2021/09/24 12:29:49;;;;;;;21.53;17.67;;;;;;;;;;5016271;28;20480;-58
2021/09/24 12:32:17;;;;;;;20.90;18.70;;;;;;;;;;5017395;28;20544;-57
2021/09/24 12:34:45;;;;;;;23.23;19.67;;;;;;;;;;5016432;28;20885;-57
2021/09/24 12:37:13;;;;;;;22.93;19.67;;;;;;;;;;5016953;28;20552;-58
2021/09/24 12:39:41;;;;;;;22.60;19.30;;;;;;;;;;5017026;28;20493;-58
2021/09/24 12:42:10;;;;;;;24.97;21.47;;;;;;;;;;5016628;28;20447;-57
2021/09/24 12:44:49;;;;;;;25.27;21.13;;;;;;;;;;5016399;28;20480;-57
2021/09/24 12:47:22;;;;;;;24.83;21.27;;;;;;;;;;5016807;28;20447;-59
2021/09/24 12:49:49;;;;;;;27.40;21.80;;;;;;;;;;5016248;28;20465;-58
2021/09/24 12:52:17;;;;;;;30.03;22.50;;;;;;;;;;5016649;28;20794;-58
2021/09/24 12:54:44;;;;;;;29.27;22.60;;;;;;;;;;5016007;28;20468;-57
2021/09/24 12:57:16;;;;;;;26.80;22.00;;;;;;;;;;5016040;28;20519;-57
2021/09/24 12:59:43;;;;;;;27.53;20.37;;;;;;;;;;5016214;28;20527;-58
2021/09/24 13:02:13;;;;;;;26.67;21.20;;;;;;;;;;5016464;28;20460;-57
2021/09/24 13:04:42;;;;;;;30.20;21.43;;;;;;;;;;5016011;28;20464;-59
2021/09/24 13:07:10;;;;;;;28.70;21.80;;;;;;;;;;5016019;28;20453;-57
2021/09/24 13:09:38;;;;;;;31.50;23.10;;;;;;;;;;5016553;28;20542;-57
2021/09/24 13:12:05;;;;;;;26.07;20.67;;;;;;;;;;5015757;28;20536;-57
2021/09/24 13:14:33;;;;;;;28.43;21.70;;;;;;;;;;5015964;28;20837;-57
2021/09/24 13:17:00;;;;;;;28.43;21.27;;;;;;;;;;5015898;28;20507;-59
2021/09/24 13:19:28;;;;;;;28.97;20.60;;;;;;;;;;5015961;28;20453;-59
2021/09/24 13:21:56;;;;;;;28.50;21.27;;;;;;;;;;5015650;28;20851;-56
2021/09/24 13:24:24;;;;;;;23.63;19.63;;;;;;;;;;5015649;28;20536;-58
2021/09/24 13:26:52;;;;;;;27.80;19.53;;;;;;;;;;5015662;28;20871;-58
2021/09/24 13:29:19;;;;;;;28.80;19.97;;;;;;;;;;5015548;28;20917;-57
2021/09/24 13:31:46;;;;;;;26.23;21.60;;;;;;;;;;5015762;28;20528;-57
2021/09/24 13:34:14;;;;;;;26.20;19.57;;;;;;;;;;5015458;28;20481;-57
2021/09/24 13:36:41;;;;;;;27.17;19.50;;;;;;;;;;5015569;28;20527;-58
2021/09/24 13:39:09;;;;;;;26.20;19.00;;;;;;;;;;5015126;28;20937;-58
2021/09/24 13:41:37;;;;;;;24.80;18.73;;;;;;;;;;5015724;28;20457;-57
2021/09/24 13:44:04;;;;;;;26.90;19.63;;;;;;;;;;5015117;28;20485;-59
2021/09/24 13:46:32;;;;;;;25.80;19.73;;;;;;;;;;5015271;28;20894;-58
2021/09/24 13:48:59;;;;;;;23.00;18.20;;;;;;;;;;5015400;28;20481;-58
2021/09/24 13:51:27;;;;;;;26.20;18.73;;;;;;;;;;5015077;28;20561;-57
2021/09/24 13:53:54;;;;;;;26.20;18.87;;;;;;;;;;5015840;28;20477;-58
2021/09/24 13:56:23;;;;;;;26.50;19.27;;;;;;;;;;5015261;28;20506;-58
2021/09/24 13:58:50;;;;;;;25.50;17.40;;;;;;;;;;5015095;28;20511;-58
2021/09/24 14:01:17;;;;;;;26.77;18.67;;;;;;;;;;5015183;28;20857;-58
2021/09/24 14:03:44;;;;;;;26.30;17.17;;;;;;;;;;5014562;28;20478;-59
2021/09/24 14:06:12;;;;;;;24.80;19.00;;;;;;;;;;5014995;28;20803;-58
2021/09/24 14:08:39;;;;;;;24.63;17.53;;;;;;;;;;5014812;28;20451;-59
2021/09/24 14:11:06;;;;;;;30.73;19.40;;;;;;;;;;5015006;28;20500;-56
2021/09/24 14:13:35;;;;;;;29.20;19.80;;;;;;;;;;5014769;28;20476;-58
2021/09/24 14:16:02;;;;;;;29.53;21.13;;;;;;;;;;5016797;28;21005;-57
2021/09/24 14:18:29;;;;;;;32.07;21.17;;;;;;;;;;5015056;28;20453;-59
2021/09/24 14:20:57;;;;;;;31.77;20.97;;;;;;;;;;5014545;28;20457;-57
2021/09/24 14:23:24;;;;;;;36.07;22.60;;;;;;;;;;5014717;28;20470;-57
2021/09/24 14:25:52;;;;;;;30.80;21.43;;;;;;;;;;5014225;28;20513;-58
2021/09/24 14:28:19;;;;;;;26.83;21.57;;;;;;;;;;5014383;28;20969;-57
2021/09/24 14:30:48;;;;;;;30.83;22.50;;;;;;;;;;5015054;28;20544;-59
2021/09/24 14:33:15;;;;;;;31.07;23.30;;;;;;;;;;5014347;28;20542;-59
2021/09/24 14:35:42;;;;;;;29.90;21.90;;;;;;;;;;5014441;28;20946;-59
2021/09/24 14:38:12;;;;;;;30.03;23.27;;;;;;;;;;5014170;28;20442;-59
2021/09/24 14:40:39;;;;;;;28.33;22.70;;;;;;;;;;5014123;28;20449;-59
2021/09/24 14:43:07;;;;;;;33.30;23.57;;;;;;;;;;5014174;28;20541;-58
2021/09/24 14:45:34;;;;;;;32.47;22.90;;;;;;;;;;5014489;28;20451;-58